sensor_id;sensor_type;location;lat;lon;timestamp;pressure;altitude;pressure_sealevel;temperature;humidity
10720;BME280;5411;58.386;15.560;2023-01-29T00:01:09;100373.81;;;1.74;100.00
10720;BME280;5411;58.386;15.560;2023-01-29T00:03:37;100387.16;;;1.73;100.00
10720;BME280;5411;58.386;15.560;2023-01-29T00:06:09;100387.84;;;1.75;100.00
10720;BME280;5411;58.386;15.560;2023-01-29T00:08:38;100382.56;;;1.75;100.00
10720;BME280;5411;58.386;15.560;2023-01-29T00:11:07;100373.81;;;1.74;100.00
10720;BME280;5411;58.386;15.560;2023-01-29T00:13:36;100369.38;;;1.75;100.00
10720;BME280;5411;58.386;15.560;2023-01-29T00:16:05;100361.47;;;1.75;100.00
10720;BME280;5411;58.386;15.560;2023-01-29T00:18:37;100367.72;;;1.74;100.00
10720;BME280;5411;58.386;15.560;2023-01-29T00:21:09;100368.53;;;1.74;100.00
10720;BME280;5411;58.386;15.560;2023-01-29T00:23:38;100363.59;;;1.71;100.00
10720;BME280;5411;58.386;15.560;2023-01-29T00:26:07;100359.97;;;1.72;100.00
10720;BME280;5411;58.386;15.560;2023-01-29T00:28:36;100359.13;;;1.72;100.00
10720;BME280;5411;58.386;15.560;2023-01-29T00:31:06;100354.53;;;1.74;100.00
10720;BME280;5411;58.386;15.560;2023-01-29T00:33:36;100352.06;;;1.72;100.00
10720;BME280;5411;58.386;15.560;2023-01-29T00:36:05;100349.25;;;1.74;100.00
10720;BME280;5411;58.386;15.560;2023-01-29T00:38:36;100360.34;;;1.77;100.00
10720;BME280;5411;58.386;15.560;2023-01-29T00:41:05;100357.72;;;1.77;100.00
10720;BME280;5411;58.386;15.560;2023-01-29T00:43:52;100354.78;;;1.81;100.00
10720;BME280;5411;58.386;15.560;2023-01-29T00:46:38;100354.50;;;1.84;100.00
10720;BME280;5411;58.386;15.560;2023-01-29T00:49:10;100345.75;;;1.83;100.00
10720;BME280;5411;58.386;15.560;2023-01-29T00:51:38;100340.34;;;1.85;100.00
10720;BME280;5411;58.386;15.560;2023-01-29T00:54:08;100335.88;;;1.85;100.00
10720;BME280;5411;58.386;15.560;2023-01-29T00:56:37;100337.38;;;1.88;100.00
10720;BME280;5411;58.386;15.560;2023-01-29T00:59:05;100331.28;;;1.87;100.00
10720;BME280;5411;58.386;15.560;2023-01-29T01:01:33;100321.56;;;1.88;100.00
10720;BME280;5411;58.386;15.560;2023-01-29T01:04:19;100322.25;;;1.90;100.00
10720;BME280;5411;58.386;15.560;2023-01-29T01:06:47;100318.47;;;1.92;100.00
10720;BME280;5411;58.386;15.560;2023-01-29T01:09:20;100323.63;;;1.94;100.00
10720;BME280;5411;58.386;15.560;2023-01-29T01:12:05;100328.75;;;1.95;100.00
10720;BME280;5411;58.386;15.560;2023-01-29T01:14:34;100308.63;;;1.94;100.00
10720;BME280;5411;58.386;15.560;2023-01-29T01:17:03;100287.50;;;1.94;100.00
10720;BME280;5411;58.386;15.560;2023-01-29T01:19:32;100284.88;;;1.94;100.00
10720;BME280;5411;58.386;15.560;2023-01-29T01:22:01;100288.50;;;1.93;100.00
10720;BME280;5411;58.386;15.560;2023-01-29T01:24:32;100301.00;;;1.91;100.00
10720;BME280;5411;58.386;15.560;2023-01-29T01:27:01;100313.22;;;1.92;100.00
10720;BME280;5411;58.386;15.560;2023-01-29T01:29:29;100308.63;;;1.94;100.00
10720;BME280;5411;58.386;15.560;2023-01-29T01:31:57;100313.75;;;1.96;100.00
10720;BME280;5411;58.386;15.560;2023-01-29T01:34:27;100321.19;;;2.00;100.00
10720;BME280;5411;58.386;15.560;2023-01-29T01:36:56;100313.13;;;2.02;100.00
10720;BME280;5411;58.386;15.560;2023-01-29T01:39:24;100312.84;;;2.05;100.00
10720;BME280;5411;58.386;15.560;2023-01-29T01:41:54;100323.25;;;2.06;100.00
10720;BME280;5411;58.386;15.560;2023-01-29T01:44:51;100320.31;;;2.09;100.00
10720;BME280;5411;58.386;15.560;2023-01-29T01:47:23;100308.78;;;2.10;100.00
10720;BME280;5411;58.386;15.560;2023-01-29T01:49:54;100311.56;;;2.09;100.00
10720;BME280;5411;58.386;15.560;2023-01-29T01:52:24;100294.63;;;2.11;100.00
10720;BME280;5411;58.386;15.560;2023-01-29T01:54:52;100269.72;;;2.14;100.00
10720;BME280;5411;58.386;15.560;2023-01-29T01:57:23;100276.81;;;2.13;100.00
10720;BME280;5411;58.386;15.560;2023-01-29T01:59:57;100275.69;;;2.16;100.00
10720;BME280;5411;58.386;15.560;2023-01-29T02:02:27;100267.31;;;2.21;100.00
10720;BME280;5411;58.386;15.560;2023-01-29T02:05:13;100255.78;;;2.22;100.00
10720;BME280;5411;58.386;15.560;2023-01-29T02:07:59;100265.06;;;2.26;100.00
10720;BME280;5411;58.386;15.560;2023-01-29T02:10:46;100243.78;;;2.27;100.00
10720;BME280;5411;58.386;15.560;2023-01-29T02:13:17;100224.47;;;2.27;100.00
10720;BME280;5411;58.386;15.560;2023-01-29T02:15:47;100241.53;;;2.32;100.00
10720;BME280;5411;58.386;15.560;2023-01-29T02:18:18;100241.53;;;2.32;100.00
10720;BME280;5411;58.386;15.560;2023-01-29T02:21:06;100235.13;;;2.35;100.00
10720;BME280;5411;58.386;15.560;2023-01-29T02:24:02;100224.72;;;2.33;100.00
10720;BME280;5411;58.386;15.560;2023-01-29T02:26:45;100228.16;;;2.34;100.00
10720;BME280;5411;58.386;15.560;2023-01-29T02:29:22;100217.31;;;2.37;100.00
10720;BME280;5411;58.386;15.560;2023-01-29T02:32:10;100199.13;;;2.34;100.00
10720;BME280;5411;58.386;15.560;2023-01-29T02:34:48;100194.00;;;2.32;100.00
10720;BME280;5411;58.386;15.560;2023-01-29T02:37:42;100196.81;;;2.31;100.00
10720;BME280;5411;58.386;15.560;2023-01-29T02:40:20;100199.28;;;2.32;100.00
10720;BME280;5411;58.386;15.560;2023-01-29T02:42:57;100209.84;;;2.32;100.00
10720;BME280;5411;58.386;15.560;2023-01-29T02:45:36;100197.19;;;2.36;100.00
10720;BME280;5411;58.386;15.560;2023-01-29T02:48:14;100182.66;;;2.40;100.00
10720;BME280;5411;58.386;15.560;2023-01-29T02:50:45;100193.44;;;2.46;100.00
10720;BME280;5411;58.386;15.560;2023-01-29T02:53:20;100193.81;;;2.52;100.00
10720;BME280;5411;58.386;15.560;2023-01-29T02:55:56;100191.38;;;2.58;100.00
10720;BME280;5411;58.386;15.560;2023-01-29T02:58:30;100176.88;;;2.62;100.00
10720;BME280;5411;58.386;15.560;2023-01-29T03:01:05;100184.50;;;2.65;100.00
10720;BME280;5411;58.386;15.560;2023-01-29T03:03:38;100188.63;;;2.68;100.00
10720;BME280;5411;58.386;15.560;2023-01-29T03:06:11;100203.34;;;2.70;100.00
10720;BME280;5411;58.386;15.560;2023-01-29T03:08:50;100210.94;;;2.73;100.00
10720;BME280;5411;58.386;15.560;2023-01-29T03:11:21;100193.13;;;2.75;100.00
10720;BME280;5411;58.386;15.560;2023-01-29T03:13:52;100194.81;;;2.76;100.00
10720;BME280;5411;58.386;15.560;2023-01-29T03:16:30;100185.91;;;2.77;100.00
10720;BME280;5411;58.386;15.560;2023-01-29T03:19:05;100178.66;;;2.79;100.00
10720;BME280;5411;58.386;15.560;2023-01-29T03:21:38;100184.72;;;2.80;100.00
10720;BME280;5411;58.386;15.560;2023-01-29T03:24:29;100176.16;;;2.78;100.00
10720;BME280;5411;58.386;15.560;2023-01-29T03:27:21;100167.06;;;2.80;100.00
10720;BME280;5411;58.386;15.560;2023-01-29T03:30:10;100157.16;;;2.82;100.00
10720;BME280;5411;58.386;15.560;2023-01-29T03:33:01;100148.25;;;2.83;100.00
10720;BME280;5411;58.386;15.560;2023-01-29T03:35:33;100148.41;;;2.82;100.00
10720;BME280;5411;58.386;15.560;2023-01-29T03:38:05;100141.47;;;2.81;100.00
10720;BME280;5411;58.386;15.560;2023-01-29T03:40:40;100151.06;;;2.82;100.00
10720;BME280;5411;58.386;15.560;2023-01-29T03:43:18;100150.22;;;2.81;100.00
10720;BME280;5411;58.386;15.560;2023-01-29T03:46:00;100137.69;;;2.83;100.00
10720;BME280;5411;58.386;15.560;2023-01-29T03:48:36;100131.59;;;2.83;100.00
10720;BME280;5411;58.386;15.560;2023-01-29T03:51:14;100122.53;;;2.85;100.00
10720;BME280;5411;58.386;15.560;2023-01-29T03:53:47;100117.25;;;2.85;100.00
10720;BME280;5411;58.386;15.560;2023-01-29T03:56:26;100111.28;;;2.83;100.00
10720;BME280;5411;58.386;15.560;2023-01-29T03:59:00;100111.97;;;2.85;100.00
10720;BME280;5411;58.386;15.560;2023-01-29T04:01:34;100122.69;;;2.84;100.00
10720;BME280;5411;58.386;15.560;2023-01-29T04:04:15;100117.41;;;2.84;100.00
10720;BME280;5411;58.386;15.560;2023-01-29T04:06:49;100120.03;;;2.84;100.00
10720;BME280;5411;58.386;15.560;2023-01-29T04:09:22;100127.81;;;2.85;100.00
10720;BME280;5411;58.386;15.560;2023-01-29T04:12:00;100119.06;;;2.85;100.00
10720;BME280;5411;58.386;15.560;2023-01-29T04:14:30;100116.25;;;2.86;100.00
10720;BME280;5411;58.386;15.560;2023-01-29T04:17:02;100114.44;;;2.87;100.00
10720;BME280;5411;58.386;15.560;2023-01-29T04:19:35;100099.56;;;2.86;100.00
10720;BME280;5411;58.386;15.560;2023-01-29T04:22:06;100095.94;;;2.87;100.00
10720;BME280;5411;58.386;15.560;2023-01-29T04:24:39;100093.31;;;2.87;100.00
10720;BME280;5411;58.386;15.560;2023-01-29T04:27:22;100096.78;;;2.88;100.00
10720;BME280;5411;58.386;15.560;2023-01-29T04:30:02;100089.84;;;2.86;100.00
10720;BME280;5411;58.386;15.560;2023-01-29T04:32:42;100080.25;;;2.85;100.00
10720;BME280;5411;58.386;15.560;2023-01-29T04:35:25;100089.00;;;2.86;100.00
10720;BME280;5411;58.386;15.560;2023-01-29T04:38:04;100095.59;;;2.82;100.00
10720;BME280;5411;58.386;15.560;2023-01-29T04:40:42;100094.75;;;2.81;100.00
10720;BME280;5411;58.386;15.560;2023-01-29T04:43:24;100080.91;;;2.79;100.00
10720;BME280;5411;58.386;15.560;2023-01-29T04:46:07;100082.72;;;2.79;100.00
10720;BME280;5411;58.386;15.560;2023-01-29T04:48:50;100068.84;;;2.77;100.00
10720;BME280;5411;58.386;15.560;2023-01-29T04:51:34;100070.00;;;2.74;100.00
10720;BME280;5411;58.386;15.560;2023-01-29T04:54:15;100056.09;;;2.72;100.00
10720;BME280;5411;58.386;15.560;2023-01-29T04:56:51;100060.72;;;2.70;100.00
10720;BME280;5411;58.386;15.560;2023-01-29T04:59:24;100065.84;;;2.72;100.00
10720;BME280;5411;58.386;15.560;2023-01-29T05:01:56;100058.91;;;2.71;100.00
10720;BME280;5411;58.386;15.560;2023-01-29T05:04:26;100055.44;;;2.70;100.00
10720;BME280;5411;58.386;15.560;2023-01-29T05:07:02;100058.91;;;2.71;100.00
10720;BME280;5411;58.386;15.560;2023-01-29T05:09:33;100044.03;;;2.70;100.00
10720;BME280;5411;58.386;15.560;2023-01-29T05:12:05;100048.19;;;2.72;100.00
10720;BME280;5411;58.386;15.560;2023-01-29T05:14:37;100029.69;;;2.72;100.00
10720;BME280;5411;58.386;15.560;2023-01-29T05:17:11;100024.94;;;2.76;100.00
10720;BME280;5411;58.386;15.560;2023-01-29T05:19:40;100022.13;;;2.77;100.00
10720;BME280;5411;58.386;15.560;2023-01-29T05:22:12;100019.34;;;2.79;100.00
10720;BME280;5411;58.386;15.560;2023-01-29T05:24:43;100021.97;;;2.79;100.00
10720;BME280;5411;58.386;15.560;2023-01-29T05:27:16;100008.09;;;2.77;100.00
10720;BME280;5411;58.386;15.560;2023-01-29T05:30:05;100015.69;;;2.80;100.00
10720;BME280;5411;58.386;15.560;2023-01-29T05:32:35;100010.41;;;2.80;100.00
10720;BME280;5411;58.386;15.560;2023-01-29T05:35:06;100010.59;;;2.78;100.00
10720;BME280;5411;58.386;15.560;2023-01-29T05:37:36;100005.63;;;2.75;100.00
10720;BME280;5411;58.386;15.560;2023-01-29T05:40:05;99981.00;;;2.75;100.00
10720;BME280;5411;58.386;15.560;2023-01-29T05:42:34;99978.38;;;2.75;100.00
10720;BME280;5411;58.386;15.560;2023-01-29T05:45:03;99983.66;;;2.75;100.00
10720;BME280;5411;58.386;15.560;2023-01-29T05:47:33;99990.59;;;2.76;100.00
10720;BME280;5411;58.386;15.560;2023-01-29T05:50:01;99973.91;;;2.75;100.00
10720;BME280;5411;58.386;15.560;2023-01-29T05:52:29;99964.19;;;2.76;100.00
10720;BME280;5411;58.386;15.560;2023-01-29T05:55:00;99960.03;;;2.73;100.00
10720;BME280;5411;58.386;15.560;2023-01-29T05:57:28;99966.16;;;2.74;100.00
10720;BME280;5411;58.386;15.560;2023-01-29T05:59:56;99965.16;;;2.75;100.00
10720;BME280;5411;58.386;15.560;2023-01-29T06:02:28;99953.63;;;2.76;100.00
10720;BME280;5411;58.386;15.560;2023-01-29T06:04:57;99959.06;;;2.74;100.00
10720;BME280;5411;58.386;15.560;2023-01-29T06:07:25;99964.66;;;2.71;100.00
10720;BME280;5411;58.386;15.560;2023-01-29T06:09:53;99960.88;;;2.66;100.00
10720;BME280;5411;58.386;15.560;2023-01-29T06:12:23;99965.47;;;2.64;100.00
10720;BME280;5411;58.386;15.560;2023-01-29T06:14:51;99956.38;;;2.58;100.00
10720;BME280;5411;58.386;15.560;2023-01-29T06:17:19;99961.16;;;2.55;100.00
10720;BME280;5411;58.386;15.560;2023-01-29T06:19:48;99972.06;;;2.52;100.00
10720;BME280;5411;58.386;15.560;2023-01-29T06:22:16;99977.50;;;2.50;100.00
10720;BME280;5411;58.386;15.560;2023-01-29T06:24:44;99976.97;;;2.46;100.00
10720;BME280;5411;58.386;15.560;2023-01-29T06:27:13;99973.00;;;2.42;100.00
10720;BME280;5411;58.386;15.560;2023-01-29T06:29:43;99981.59;;;2.44;100.00
10720;BME280;5411;58.386;15.560;2023-01-29T06:32:12;99985.06;;;2.45;100.00
10720;BME280;5411;58.386;15.560;2023-01-29T06:34:43;99973.16;;;2.41;100.00
10720;BME280;5411;58.386;15.560;2023-01-29T06:37:15;99979.25;;;2.41;100.00
10720;BME280;5411;58.386;15.560;2023-01-29T06:39:44;99975.97;;;2.39;100.00
10720;BME280;5411;58.386;15.560;2023-01-29T06:42:12;99974.31;;;2.38;100.00
10720;BME280;5411;58.386;15.560;2023-01-29T06:44:43;99971.69;;;2.38;100.00
10720;BME280;5411;58.386;15.560;2023-01-29T06:47:12;99966.56;;;2.37;100.00
10720;BME280;5411;58.386;15.560;2023-01-29T06:49:40;99963.25;;;2.35;100.00
10720;BME280;5411;58.386;15.560;2023-01-29T06:52:10;99959.94;;;2.33;100.00
10720;BME280;5411;58.386;15.560;2023-01-29T06:54:38;99958.28;;;2.32;100.00
10720;BME280;5411;58.386;15.560;2023-01-29T06:57:07;99959.25;;;2.31;100.00
10720;BME280;5411;58.386;15.560;2023-01-29T06:59:35;99954.97;;;2.30;100.00
10720;BME280;5411;58.386;15.560;2023-01-29T07:02:05;99942.28;;;2.25;100.00
10720;BME280;5411;58.386;15.560;2023-01-29T07:04:34;99954.63;;;2.25;100.00
10720;BME280;5411;58.386;15.560;2023-01-29T07:07:03;99948.53;;;2.24;100.00
10720;BME280;5411;58.386;15.560;2023-01-29T07:09:39;99944.41;;;2.22;100.00
10720;BME280;5411;58.386;15.560;2023-01-29T07:12:07;99940.25;;;2.19;100.00
10720;BME280;5411;58.386;15.560;2023-01-29T07:14:36;99921.63;;;2.12;100.00
10720;BME280;5411;58.386;15.560;2023-01-29T07:17:06;99941.09;;;2.20;100.00
10720;BME280;5411;58.386;15.560;2023-01-29T07:19:34;99945.69;;;2.18;100.00
10720;BME280;5411;58.386;15.560;2023-01-29T07:22:03;99944.72;;;2.19;100.00
10720;BME280;5411;58.386;15.560;2023-01-29T07:24:32;99948.34;;;2.18;100.00
10720;BME280;5411;58.386;15.560;2023-01-29T07:27:00;99952.63;;;2.19;100.00
10720;BME280;5411;58.386;15.560;2023-01-29T07:29:30;99940.25;;;2.19;100.00
10720;BME280;5411;58.386;15.560;2023-01-29T07:32:00;99937.47;;;2.21;100.00
10720;BME280;5411;58.386;15.560;2023-01-29T07:34:29;99920.97;;;2.19;100.00
10720;BME280;5411;58.386;15.560;2023-01-29T07:36:58;99922.31;;;2.23;100.00
10720;BME280;5411;58.386;15.560;2023-01-29T07:39:31;99915.22;;;2.23;100.00
10720;BME280;5411;58.386;15.560;2023-01-29T07:42:00;99914.06;;;2.26;100.00
10720;BME280;5411;58.386;15.560;2023-01-29T07:44:30;99899.56;;;2.30;100.00
10720;BME280;5411;58.386;15.560;2023-01-29T07:46:58;99885.72;;;2.36;100.00
10720;BME280;5411;58.386;15.560;2023-01-29T07:49:27;99886.72;;;2.43;100.00
10720;BME280;5411;58.386;15.560;2023-01-29T07:51:56;99875.50;;;2.49;100.00
10720;BME280;5411;58.386;15.560;2023-01-29T07:54:25;99869.75;;;2.62;100.00
10720;BME280;5411;58.386;15.560;2023-01-29T07:56:53;99860.84;;;2.71;100.00
10720;BME280;5411;58.386;15.560;2023-01-29T07:59:21;99846.81;;;2.78;100.00
10720;BME280;5411;58.386;15.560;2023-01-29T08:01:50;99837.72;;;2.89;100.00
10720;BME280;5411;58.386;15.560;2023-01-29T08:04:19;99836.06;;;2.96;100.00
10720;BME280;5411;58.386;15.560;2023-01-29T08:06:47;99820.53;;;3.01;100.00
10720;BME280;5411;58.386;15.560;2023-01-29T08:09:17;99815.56;;;3.06;100.00
10720;BME280;5411;58.386;15.560;2023-01-29T08:11:45;99801.84;;;3.11;100.00
10720;BME280;5411;58.386;15.560;2023-01-29T08:14:16;99797.56;;;3.18;100.00
10720;BME280;5411;58.386;15.560;2023-01-29T08:16:44;99798.19;;;3.28;100.00
10720;BME280;5411;58.386;15.560;2023-01-29T08:19:13;99788.41;;;3.37;100.00
10720;BME280;5411;58.386;15.560;2023-01-29T08:21:42;99787.84;;;3.49;100.00
10720;BME280;5411;58.386;15.560;2023-01-29T08:24:21;99767.97;;;3.62;100.00
10720;BME280;5411;58.386;15.560;2023-01-29T08:27:07;99772.41;;;3.69;100.00
10720;BME280;5411;58.386;15.560;2023-01-29T08:29:35;99777.66;;;3.77;100.00
10720;BME280;5411;58.386;15.560;2023-01-29T08:32:04;99779.78;;;3.82;100.00
10720;BME280;5411;58.386;15.560;2023-01-29T08:34:32;99768.97;;;3.91;100.00
10720;BME280;5411;58.386;15.560;2023-01-29T08:39:47;99763.56;;;4.08;100.00
10720;BME280;5411;58.386;15.560;2023-01-29T08:42:16;99763.34;;;4.17;100.00
10720;BME280;5411;58.386;15.560;2023-01-29T08:44:44;99764.91;;;4.26;100.00
10720;BME280;5411;58.386;15.560;2023-01-29T08:47:13;99757.09;;;4.33;100.00
10720;BME280;5411;58.386;15.560;2023-01-29T08:49:42;99757.19;;;4.40;100.00
10720;BME280;5411;58.386;15.560;2023-01-29T08:52:19;99758.50;;;4.44;100.00
10720;BME280;5411;58.386;15.560;2023-01-29T08:54:49;99753.84;;;4.46;100.00
10720;BME280;5411;58.386;15.560;2023-01-29T08:57:17;99746.56;;;4.48;100.00
10720;BME280;5411;58.386;15.560;2023-01-29T08:59:46;99741.91;;;4.50;100.00
10720;BME280;5411;58.386;15.560;2023-01-29T09:02:14;99733.59;;;4.53;100.00
10720;BME280;5411;58.386;15.560;2023-01-29T09:04:42;99724.28;;;4.57;100.00
10720;BME280;5411;58.386;15.560;2023-01-29T09:07:10;99718.28;;;4.63;100.00
10720;BME280;5411;58.386;15.560;2023-01-29T09:09:39;99716.06;;;4.66;100.00
10720;BME280;5411;58.386;15.560;2023-01-29T09:12:09;99715.19;;;4.74;100.00
10720;BME280;5411;58.386;15.560;2023-01-29T09:14:37;99711.34;;;4.77;100.00
10720;BME280;5411;58.386;15.560;2023-01-29T09:17:06;99693.34;;;4.87;100.00
10720;BME280;5411;58.386;15.560;2023-01-29T09:19:35;99702.41;;;4.92;100.00
10720;BME280;5411;58.386;15.560;2023-01-29T09:22:03;99703.50;;;4.98;100.00
10720;BME280;5411;58.386;15.560;2023-01-29T09:24:32;99705.31;;;4.97;100.00
10720;BME280;5411;58.386;15.560;2023-01-29T09:27:00;99709.16;;;4.95;100.00
10720;BME280;5411;58.386;15.560;2023-01-29T09:29:31;99698.53;;;4.95;100.00
10720;BME280;5411;58.386;15.560;2023-01-29T09:32:02;99695.19;;;5.01;100.00
10720;BME280;5411;58.386;15.560;2023-01-29T09:34:32;99701.31;;;5.01;100.00
10720;BME280;5411;58.386;15.560;2023-01-29T09:37:01;99708.91;;;5.05;100.00
10720;BME280;5411;58.386;15.560;2023-01-29T09:39:29;99704.03;;;5.08;100.00
10720;BME280;5411;58.386;15.560;2023-01-29T09:42:02;99715.38;;;5.17;100.00
10720;BME280;5411;58.386;15.560;2023-01-29T09:44:47;99712.97;;;5.22;100.00
10720;BME280;5411;58.386;15.560;2023-01-29T09:47:23;99715.09;;;5.26;100.00
10720;BME280;5411;58.386;15.560;2023-01-29T09:49:57;99696.16;;;5.29;100.00
10720;BME280;5411;58.386;15.560;2023-01-29T09:52:29;99694.16;;;5.31;100.00
10720;BME280;5411;58.386;15.560;2023-01-29T09:55:04;99714.78;;;5.36;100.00
10720;BME280;5411;58.386;15.560;2023-01-29T09:57:49;99711.50;;;5.34;100.00
10720;BME280;5411;58.386;15.560;2023-01-29T10:00:23;99716.44;;;5.37;100.00
10720;BME280;5411;58.386;15.560;2023-01-29T10:03:03;99707.47;;;5.38;100.00
10720;BME280;5411;58.386;15.560;2023-01-29T10:05:54;99713.16;;;5.35;100.00
10720;BME280;5411;58.386;15.560;2023-01-29T10:08:47;99715.56;;;5.30;100.00
10720;BME280;5411;58.386;15.560;2023-01-29T10:11:28;99698.44;;;5.32;100.00
10720;BME280;5411;58.386;15.560;2023-01-29T10:14:10;99683.97;;;5.35;100.00
10720;BME280;5411;58.386;15.560;2023-01-29T10:16:51;99676.28;;;5.40;100.00
10720;BME280;5411;58.386;15.560;2023-01-29T10:19:46;99685.72;;;5.43;100.00
10720;BME280;5411;58.386;15.560;2023-01-29T10:25:15;99656.97;;;5.46;100.00
10720;BME280;5411;58.386;15.560;2023-01-29T10:27:48;99639.84;;;5.49;100.00
10720;BME280;5411;58.386;15.560;2023-01-29T10:30:25;99631.53;;;5.52;100.00
10720;BME280;5411;58.386;15.560;2023-01-29T10:33:01;99625.84;;;5.55;100.00
10720;BME280;5411;58.386;15.560;2023-01-29T10:35:33;99622.00;;;5.57;100.00
10720;BME280;5411;58.386;15.560;2023-01-29T10:38:17;99620.78;;;5.60;100.00
10720;BME280;5411;58.386;15.560;2023-01-29T10:40:52;99609.78;;;5.63;100.00
10720;BME280;5411;58.386;15.560;2023-01-29T10:43:29;99610.69;;;5.70;100.00
10720;BME280;5411;58.386;15.560;2023-01-29T10:46:10;99604.81;;;5.74;100.00
10720;BME280;5411;58.386;15.560;2023-01-29T10:48:54;99608.16;;;5.83;100.00
10720;BME280;5411;58.386;15.560;2023-01-29T10:51:51;99612.72;;;5.89;100.00
10720;BME280;5411;58.386;15.560;2023-01-29T10:54:41;99603.00;;;5.96;100.00
10720;BME280;5411;58.386;15.560;2023-01-29T10:57:17;99594.25;;;6.02;100.00
10720;BME280;5411;58.386;15.560;2023-01-29T11:00:00;99582.28;;;6.13;100.00
10720;BME280;5411;58.386;15.560;2023-01-29T11:02:33;99574.56;;;6.18;100.00
10720;BME280;5411;58.386;15.560;2023-01-29T11:05:04;99572.16;;;6.23;100.00
10720;BME280;5411;58.386;15.560;2023-01-29T11:07:35;99565.19;;;6.22;100.00
10720;BME280;5411;58.386;15.560;2023-01-29T11:10:10;99560.72;;;6.23;100.00
10720;BME280;5411;58.386;15.560;2023-01-29T11:12:42;99574.81;;;6.23;100.00
10720;BME280;5411;58.386;15.560;2023-01-29T11:15:17;99568.22;;;6.19;100.00
10720;BME280;5411;58.386;15.560;2023-01-29T11:18:03;99554.97;;;6.19;100.00
10720;BME280;5411;58.386;15.560;2023-01-29T11:20:33;99543.31;;;6.20;100.00
10720;BME280;5411;58.386;15.560;2023-01-29T11:23:02;99530.66;;;6.22;100.00
10720;BME280;5411;58.386;15.560;2023-01-29T11:25:33;99534.97;;;6.23;100.00
10720;BME280;5411;58.386;15.560;2023-01-29T11:28:02;99511.69;;;6.25;100.00
10720;BME280;5411;58.386;15.560;2023-01-29T11:30:33;99504.56;;;6.26;100.00
10720;BME280;5411;58.386;15.560;2023-01-29T11:33:09;99489.84;;;6.30;100.00
10720;BME280;5411;58.386;15.560;2023-01-29T11:35:41;99498.88;;;6.35;100.00
10720;BME280;5411;58.386;15.560;2023-01-29T11:38:18;99487.22;;;6.36;100.00
10720;BME280;5411;58.386;15.560;2023-01-29T11:40:48;99473.94;;;6.36;100.00
10720;BME280;5411;58.386;15.560;2023-01-29T11:43:22;99463.13;;;6.38;100.00
10720;BME280;5411;58.386;15.560;2023-01-29T11:45:57;99462.50;;;6.42;100.00
10720;BME280;5411;58.386;15.560;2023-01-29T11:48:34;99443.94;;;6.49;100.00
10720;BME280;5411;58.386;15.560;2023-01-29T11:51:11;99424.53;;;6.55;100.00
10720;BME280;5411;58.386;15.560;2023-01-29T11:53:42;99430.47;;;6.57;100.00
10720;BME280;5411;58.386;15.560;2023-01-29T11:56:17;99422.31;;;6.59;100.00
10720;BME280;5411;58.386;15.560;2023-01-29T11:58:48;99398.41;;;6.59;100.00
10720;BME280;5411;58.386;15.560;2023-01-29T12:01:26;99409.66;;;6.61;100.00
10720;BME280;5411;58.386;15.560;2023-01-29T12:03:58;99393.69;;;6.61;100.00
10720;BME280;5411;58.386;15.560;2023-01-29T12:06:33;99381.44;;;6.60;100.00
10720;BME280;5411;58.386;15.560;2023-01-29T12:09:09;99382.44;;;6.59;100.00
10720;BME280;5411;58.386;15.560;2023-01-29T12:11:41;99377.13;;;6.59;100.00
10720;BME280;5411;58.386;15.560;2023-01-29T12:14:23;99365.69;;;6.58;100.00
10720;BME280;5411;58.386;15.560;2023-01-29T12:16:56;99361.38;;;6.57;100.00
10720;BME280;5411;58.386;15.560;2023-01-29T12:19:30;99349.94;;;6.57;100.00
10720;BME280;5411;58.386;15.560;2023-01-29T12:22:07;99338.50;;;6.56;100.00
10720;BME280;5411;58.386;15.560;2023-01-29T12:24:42;99350.97;;;6.56;100.00
10720;BME280;5411;58.386;15.560;2023-01-29T12:27:18;99334.41;;;6.54;100.00
10720;BME280;5411;58.386;15.560;2023-01-29T12:29:54;99332.16;;;6.51;100.00
10720;BME280;5411;58.386;15.560;2023-01-29T12:32:30;99338.06;;;6.53;100.00
10720;BME280;5411;58.386;15.560;2023-01-29T12:35:11;99328.50;;;6.52;100.00
10720;BME280;5411;58.386;15.560;2023-01-29T12:37:52;99324.59;;;6.48;100.00
10720;BME280;5411;58.386;15.560;2023-01-29T12:40:24;99306.19;;;6.46;100.00
10720;BME280;5411;58.386;15.560;2023-01-29T12:43:00;99300.88;;;6.46;100.00
10720;BME280;5411;58.386;15.560;2023-01-29T12:45:31;99300.66;;;6.41;100.00
10720;BME280;5411;58.386;15.560;2023-01-29T12:48:06;99288.00;;;6.43;100.00
10720;BME280;5411;58.386;15.560;2023-01-29T12:50:37;99287.38;;;6.41;100.00
10720;BME280;5411;58.386;15.560;2023-01-29T12:53:17;99284.13;;;6.39;100.00
10720;BME280;5411;58.386;15.560;2023-01-29T12:55:50;99284.53;;;6.36;100.00
10720;BME280;5411;58.386;15.560;2023-01-29T12:58:25;99287.38;;;6.34;100.00
10720;BME280;5411;58.386;15.560;2023-01-29T13:01:03;99282.25;;;6.33;100.00
10720;BME280;5411;58.386;15.560;2023-01-29T13:03:44;99280.44;;;6.33;100.00
10720;BME280;5411;58.386;15.560;2023-01-29T13:06:16;99277.78;;;6.33;100.00
10720;BME280;5411;58.386;15.560;2023-01-29T13:08:50;99253.88;;;6.33;99.97
10720;BME280;5411;58.386;15.560;2023-01-29T13:11:23;99246.50;;;6.35;100.00
10720;BME280;5411;58.386;15.560;2023-01-29T13:13:58;99254.69;;;6.34;99.18
10720;BME280;5411;58.386;15.560;2023-01-29T13:16:32;99246.50;;;6.35;99.76
10720;BME280;5411;58.386;15.560;2023-01-29T13:19:05;99242.84;;;6.36;100.00
10720;BME280;5411;58.386;15.560;2023-01-29T13:21:41;99243.84;;;6.35;100.00
10720;BME280;5411;58.386;15.560;2023-01-29T13:24:15;99219.13;;;6.35;99.99
10720;BME280;5411;58.386;15.560;2023-01-29T13:26:46;99226.91;;;6.36;100.00
10720;BME280;5411;58.386;15.560;2023-01-29T13:29:23;99207.06;;;6.32;100.00
10720;BME280;5411;58.386;15.560;2023-01-29T13:31:52;99210.97;;;6.36;99.44
10720;BME280;5411;58.386;15.560;2023-01-29T13:34:24;99211.59;;;6.38;99.45